createdAt,value
2023-01-31T00:01:34.245Z,4.50
2023-01-31T00:04:03.969Z,4.40
2023-01-31T00:06:33.402Z,4.40
2023-01-31T00:09:01.443Z,4.40
2023-01-31T00:11:29.862Z,4.30
2023-01-31T00:13:58.351Z,4.30
2023-01-31T00:16:25.916Z,4.40
2023-01-31T00:18:53.179Z,4.50
2023-01-31T00:21:22.890Z,4.40
2023-01-31T00:23:51.666Z,4.50
2023-01-31T00:26:22.266Z,4.70
2023-01-31T00:28:51.178Z,4.70
2023-01-31T00:31:19.687Z,4.60
2023-01-31T00:33:48.575Z,4.70
2023-01-31T00:36:17.988Z,4.50
2023-01-31T00:38:47.731Z,4.50
2023-01-31T00:41:14.621Z,4.50
2023-01-31T00:43:41.572Z,4.50
2023-01-31T00:46:08.519Z,4.40
2023-01-31T00:48:35.707Z,4.40
2023-01-31T00:51:02.967Z,4.40
2023-01-31T00:53:30.195Z,4.50
2023-01-31T00:56:05.292Z,4.30
2023-01-31T00:58:32.182Z,4.30
2023-01-31T01:01:26.443Z,4.20
2023-01-31T01:03:54.480Z,4.20
2023-01-31T01:06:22.301Z,4.30
2023-01-31T01:08:49.273Z,4.20
2023-01-31T01:11:22.605Z,4.40
2023-01-31T01:13:50.116Z,4.30
2023-01-31T01:16:26.646Z,4.40
2023-01-31T01:18:55.252Z,4.40
2023-01-31T01:21:31.191Z,4.40
2023-01-31T01:24:00.648Z,4.40
2023-01-31T01:26:32.121Z,4.40
2023-01-31T01:29:01.201Z,4.40
2023-01-31T01:31:32.498Z,4.50
2023-01-31T01:34:02.182Z,4.50
2023-01-31T01:36:32.525Z,4.60
2023-01-31T01:38:59.631Z,4.70
2023-01-31T01:41:26.795Z,4.80
2023-01-31T01:43:56.267Z,4.80
2023-01-31T01:46:44.761Z,4.90
2023-01-31T01:49:31.217Z,5.00
2023-01-31T01:52:02.826Z,5.00
2023-01-31T01:54:36.573Z,5.00
2023-01-31T01:57:06.005Z,5.00
2023-01-31T01:59:53.853Z,5.00
2023-01-31T02:02:21.190Z,5.00
2023-01-31T02:04:50.717Z,5.10
2023-01-31T02:07:17.593Z,5.10
2023-01-31T02:10:13.078Z,5.10
2023-01-31T02:12:40.980Z,5.10
2023-01-31T02:15:08.720Z,5.10
2023-01-31T02:17:35.785Z,5.20
2023-01-31T02:20:35.192Z,5.20
2023-01-31T02:23:32.336Z,5.20
2023-01-31T02:26:32.988Z,5.20
2023-01-31T02:29:28.015Z,5.20
2023-01-31T02:32:12.893Z,5.20
2023-01-31T02:35:01.043Z,5.20
2023-01-31T02:37:37.433Z,5.20
2023-01-31T02:40:16.349Z,5.10
2023-01-31T02:43:21.693Z,5.00
2023-01-31T02:46:18.280Z,4.90
2023-01-31T02:49:00.507Z,4.90
2023-01-31T02:51:38.642Z,4.70
2023-01-31T02:54:18.439Z,4.70
2023-01-31T02:56:47.669Z,4.60
2023-01-31T02:59:22.147Z,4.70
2023-01-31T03:01:56.110Z,4.60
2023-01-31T03:04:22.967Z,4.70
2023-01-31T03:07:06.846Z,4.80
2023-01-31T03:10:02.457Z,4.70
2023-01-31T03:12:53.914Z,4.60
2023-01-31T03:16:07.286Z,4.70
2023-01-31T03:18:52.706Z,4.70
2023-01-31T03:21:26.310Z,4.70
2023-01-31T03:23:57.923Z,4.80
2023-01-31T03:26:27.012Z,4.70
2023-01-31T03:28:57.263Z,4.80
2023-01-31T03:31:30.183Z,4.80
2023-01-31T03:34:03.968Z,4.90
2023-01-31T03:36:54.016Z,4.90
2023-01-31T03:39:38.867Z,4.90
2023-01-31T03:42:28.781Z,4.90
2023-01-31T03:45:06.136Z,4.90
2023-01-31T03:47:43.371Z,5.00
2023-01-31T03:50:15.292Z,5.00
2023-01-31T03:52:56.484Z,5.00
2023-01-31T03:55:35.941Z,5.10
2023-01-31T03:58:06.229Z,5.10
2023-01-31T04:00:37.535Z,5.10
2023-01-31T04:03:15.091Z,5.10
2023-01-31T04:05:42.270Z,5.20
2023-01-31T04:08:09.326Z,5.00
2023-01-31T04:10:36.222Z,4.90
2023-01-31T04:13:03.515Z,4.80
2023-01-31T04:15:30.452Z,4.80
2023-01-31T04:17:57.337Z,4.70
2023-01-31T04:20:24.353Z,4.70
2023-01-31T04:22:51.281Z,4.60
2023-01-31T04:25:18.813Z,4.60
2023-01-31T04:27:45.939Z,4.50
2023-01-31T04:30:13.360Z,4.50
2023-01-31T04:32:40.247Z,4.40
2023-01-31T04:35:07.363Z,4.40
2023-01-31T04:37:34.337Z,4.40
2023-01-31T04:40:01.351Z,4.40
2023-01-31T04:42:28.324Z,4.40
2023-01-31T04:44:55.224Z,4.50
2023-01-31T04:47:22.323Z,4.70
2023-01-31T04:49:49.168Z,4.60
2023-01-31T04:52:16.083Z,4.60
2023-01-31T04:54:43.029Z,4.60
2023-01-31T04:57:09.915Z,4.70
2023-01-31T04:59:36.796Z,4.80
2023-01-31T05:02:03.677Z,4.80
2023-01-31T05:04:30.599Z,4.80
2023-01-31T05:06:57.739Z,4.70
2023-01-31T05:09:25.001Z,4.80
2023-01-31T05:11:52.157Z,4.70
2023-01-31T05:14:21.068Z,4.70
2023-01-31T05:16:48.100Z,4.70
2023-01-31T05:19:16.147Z,4.70
2023-01-31T05:21:55.768Z,4.60
2023-01-31T05:24:23.109Z,4.50
2023-01-31T05:26:52.842Z,4.50
2023-01-31T05:29:20.095Z,4.50
2023-01-31T05:31:47.194Z,4.40
2023-01-31T05:34:16.046Z,4.40
2023-01-31T05:36:43.180Z,4.40
2023-01-31T05:39:10.317Z,4.40
2023-01-31T05:41:37.247Z,4.50
2023-01-31T05:44:04.211Z,4.50
2023-01-31T05:46:31.342Z,4.50
2023-01-31T05:48:58.209Z,4.50
2023-01-31T05:51:25.162Z,4.50
2023-01-31T05:53:52.065Z,4.60
2023-01-31T05:56:18.975Z,4.60
2023-01-31T05:58:50.367Z,4.60
2023-01-31T06:01:23.041Z,4.60
2023-01-31T06:03:50.433Z,4.60
2023-01-31T06:06:17.620Z,4.70
2023-01-31T06:08:44.609Z,4.70
2023-01-31T06:11:12.712Z,4.60
2023-01-31T06:13:43.435Z,4.60
2023-01-31T06:16:10.916Z,4.70
2023-01-31T06:18:38.000Z,4.70
2023-01-31T06:21:05.084Z,4.60
2023-01-31T06:23:32.028Z,4.70
2023-01-31T06:25:59.491Z,4.70
2023-01-31T06:28:26.405Z,4.70
2023-01-31T06:30:53.373Z,4.80
2023-01-31T06:33:21.557Z,4.80
2023-01-31T06:35:49.640Z,4.80
2023-01-31T06:38:16.566Z,4.80
2023-01-31T06:40:43.511Z,4.90
2023-01-31T06:43:10.336Z,4.80
2023-01-31T06:45:37.814Z,4.90
2023-01-31T06:48:04.831Z,4.80
2023-01-31T06:50:31.786Z,4.80
2023-01-31T06:52:59.393Z,4.80
2023-01-31T06:55:26.717Z,4.90
2023-01-31T06:57:55.320Z,4.90
2023-01-31T07:00:24.621Z,4.90
2023-01-31T07:02:52.280Z,4.90
2023-01-31T07:05:20.950Z,4.90
2023-01-31T07:07:49.823Z,4.90
2023-01-31T07:10:17.762Z,4.90
2023-01-31T07:12:44.759Z,4.90
2023-01-31T07:15:12.292Z,4.90
2023-01-31T07:17:39.235Z,4.90
2023-01-31T07:20:06.897Z,5.00
2023-01-31T07:22:33.753Z,5.00
2023-01-31T07:25:00.762Z,5.00
2023-01-31T07:27:27.883Z,5.10
2023-01-31T07:29:55.100Z,5.10
2023-01-31T07:32:26.522Z,5.10
2023-01-31T07:34:53.810Z,5.20
2023-01-31T07:37:20.753Z,5.20
2023-01-31T07:39:48.186Z,5.30
2023-01-31T07:42:15.513Z,5.30
2023-01-31T07:44:44.287Z,5.50
2023-01-31T07:47:11.384Z,5.50
2023-01-31T07:49:38.464Z,5.50
2023-01-31T07:52:07.988Z,5.50
2023-01-31T07:54:35.438Z,5.60
2023-01-31T07:57:03.593Z,5.60
2023-01-31T07:59:30.948Z,5.60
2023-01-31T08:02:17.123Z,5.70
2023-01-31T08:04:44.159Z,5.70
2023-01-31T08:07:12.805Z,5.80
2023-01-31T08:09:39.966Z,5.80
2023-01-31T08:12:08.103Z,5.90
2023-01-31T08:14:39.840Z,6.00
2023-01-31T08:17:08.331Z,6.10
2023-01-31T08:19:35.815Z,6.20
2023-01-31T08:22:04.672Z,6.20
2023-01-31T08:24:32.780Z,6.30
2023-01-31T08:27:06.114Z,6.50
2023-01-31T08:29:33.909Z,6.50
2023-01-31T08:32:05.736Z,6.40
2023-01-31T08:34:33.171Z,6.50
2023-01-31T08:37:01.944Z,6.70
2023-01-31T08:39:30.834Z,6.60
2023-01-31T08:41:57.748Z,6.70
2023-01-31T08:44:24.804Z,6.70
2023-01-31T08:46:51.745Z,6.90
2023-01-31T08:49:20.464Z,6.80
2023-01-31T08:51:47.468Z,6.90
2023-01-31T08:54:15.700Z,7.10
2023-01-31T08:56:43.166Z,7.00
2023-01-31T08:59:11.915Z,7.10
2023-01-31T09:01:42.236Z,7.20
2023-01-31T09:04:09.325Z,7.40
2023-01-31T09:06:36.963Z,7.60
2023-01-31T09:09:04.840Z,7.70
2023-01-31T09:11:32.105Z,7.80
2023-01-31T09:14:01.961Z,7.90
2023-01-31T09:16:29.244Z,8.00
2023-01-31T09:18:57.068Z,8.10
2023-01-31T09:21:24.562Z,8.10
2023-01-31T09:23:56.995Z,8.10
2023-01-31T09:26:24.432Z,8.20
2023-01-31T09:28:51.665Z,8.30
2023-01-31T09:31:21.476Z,8.40
2023-01-31T09:33:48.727Z,8.30
2023-01-31T09:36:27.448Z,8.40
2023-01-31T09:39:07.020Z,8.40
2023-01-31T09:41:39.227Z,8.30
2023-01-31T09:44:22.222Z,8.30
2023-01-31T09:47:08.843Z,8.20
2023-01-31T09:49:47.745Z,8.20
2023-01-31T09:52:14.886Z,8.20
2023-01-31T09:54:44.695Z,8.10
2023-01-31T09:57:51.227Z,8.10
2023-01-31T10:00:44.290Z,8.10
2023-01-31T10:03:33.507Z,8.10
2023-01-31T10:06:21.398Z,8.10
2023-01-31T10:08:57.594Z,8.10
2023-01-31T10:11:52.033Z,8.10
2023-01-31T10:14:47.733Z,8.10
2023-01-31T10:17:26.125Z,8.10
2023-01-31T10:20:20.122Z,8.00
2023-01-31T10:23:00.392Z,7.90
2023-01-31T10:25:35.170Z,7.70
2023-01-31T10:28:06.904Z,7.70
2023-01-31T10:30:50.173Z,7.50
2023-01-31T10:33:22.755Z,7.30
2023-01-31T10:35:54.654Z,7.30
2023-01-31T10:38:30.877Z,7.20
2023-01-31T10:41:10.302Z,7.00
2023-01-31T10:43:43.494Z,6.90
2023-01-31T10:46:15.110Z,6.80
2023-01-31T10:48:48.264Z,6.90
2023-01-31T10:51:56.845Z,6.80
2023-01-31T10:54:52.330Z,6.70
2023-01-31T10:57:19.811Z,6.70
2023-01-31T10:59:51.679Z,6.70
2023-01-31T11:02:22.611Z,6.70
2023-01-31T11:04:52.435Z,6.80
2023-01-31T11:07:20.236Z,6.80
2023-01-31T11:09:53.485Z,6.90
2023-01-31T11:12:22.662Z,6.90
2023-01-31T11:15:14.883Z,6.80
2023-01-31T11:17:44.139Z,6.80
2023-01-31T11:20:44.441Z,6.70
2023-01-31T11:23:17.660Z,6.70
2023-01-31T11:25:49.993Z,6.70
2023-01-31T11:28:23.542Z,6.70
2023-01-31T11:30:54.293Z,6.80
2023-01-31T11:33:49.135Z,6.80
2023-01-31T11:36:22.912Z,6.90
2023-01-31T11:38:54.593Z,6.90
2023-01-31T11:41:41.085Z,6.90
2023-01-31T11:44:20.566Z,7.10
2023-01-31T11:47:00.393Z,7.00
2023-01-31T11:49:36.521Z,7.00
2023-01-31T11:52:31.743Z,7.10
2023-01-31T11:55:07.463Z,7.10
2023-01-31T11:57:39.469Z,7.10
2023-01-31T12:00:20.529Z,7.00
2023-01-31T12:02:58.336Z,7.00
2023-01-31T12:05:47.435Z,7.10
2023-01-31T12:08:37.723Z,6.90
2023-01-31T12:11:19.919Z,6.90
2023-01-31T12:13:53.053Z,6.90
2023-01-31T12:16:26.671Z,6.80
2023-01-31T12:19:13.924Z,6.80
2023-01-31T12:22:20.725Z,6.80
2023-01-31T12:25:23.617Z,6.80
2023-01-31T12:28:08.630Z,6.80
2023-01-31T12:30:54.115Z,6.80
2023-01-31T12:33:39.705Z,6.80
2023-01-31T12:36:28.423Z,6.80
2023-01-31T12:39:19.517Z,6.70
2023-01-31T12:42:02.343Z,6.70
2023-01-31T12:44:47.924Z,6.70
2023-01-31T12:47:23.801Z,6.70
2023-01-31T12:50:11.854Z,6.70
2023-01-31T12:52:57.473Z,6.80
2023-01-31T12:55:35.380Z,6.80
2023-01-31T12:58:26.967Z,6.70
2023-01-31T13:01:02.872Z,6.80
2023-01-31T13:03:54.171Z,6.70
2023-01-31T13:06:50.338Z,6.80
2023-01-31T13:09:45.835Z,6.90
2023-01-31T13:12:25.978Z,6.80
2023-01-31T13:15:25.152Z,6.70
2023-01-31T13:17:58.897Z,6.80
2023-01-31T13:20:47.067Z,6.80
2023-01-31T13:23:23.554Z,6.80
2023-01-31T13:25:57.608Z,6.80
2023-01-31T13:28:31.780Z,6.80
2023-01-31T13:31:12.168Z,6.90
2023-01-31T13:34:03.234Z,6.90
2023-01-31T13:36:39.148Z,6.90
2023-01-31T13:39:19.707Z,6.90
2023-01-31T13:41:47.373Z,6.80
2023-01-31T13:47:26.561Z,6.90
2023-01-31T13:50:29.046Z,6.90
2023-01-31T13:53:27.578Z,7.00
2023-01-31T13:55:58.309Z,7.00
2023-01-31T13:58:29.995Z,6.90
2023-01-31T14:01:04.719Z,6.80
2023-01-31T14:04:18.563Z,6.80
2023-01-31T14:07:07.411Z,6.90
2023-01-31T14:09:40.327Z,6.90
2023-01-31T14:12:10.444Z,6.90
2023-01-31T14:14:43.891Z,6.90
2023-01-31T14:17:33.854Z,6.90
2023-01-31T14:20:03.322Z,6.90
2023-01-31T14:22:39.978Z,7.00
2023-01-31T14:25:10.041Z,7.00
2023-01-31T14:27:44.798Z,7.00
2023-01-31T14:30:44.725Z,6.90
2023-01-31T14:33:12.022Z,6.90
2023-01-31T14:36:00.230Z,7.00
2023-01-31T14:38:45.994Z,6.80
2023-01-31T14:41:30.858Z,6.90
2023-01-31T14:44:23.096Z,6.90
2023-01-31T14:47:25.756Z,6.90
2023-01-31T14:50:05.460Z,6.90
2023-01-31T14:52:38.527Z,6.80
2023-01-31T14:55:50.087Z,6.90
2023-01-31T14:58:23.836Z,6.90
2023-01-31T15:00:59.228Z,6.90
2023-01-31T15:03:34.276Z,7.00
2023-01-31T15:06:15.898Z,7.00
2023-01-31T15:08:49.183Z,6.90
2023-01-31T15:11:42.431Z,7.00
2023-01-31T15:14:45.568Z,6.90
2023-01-31T15:17:33.646Z,6.90
2023-01-31T15:20:19.786Z,6.90
2023-01-31T15:22:48.701Z,6.90
2023-01-31T15:25:34.889Z,7.00
2023-01-31T15:28:03.814Z,7.00
2023-01-31T15:30:34.091Z,7.00
2023-01-31T15:33:24.375Z,7.10
2023-01-31T15:36:05.276Z,7.10
2023-01-31T15:38:54.953Z,7.00
2023-01-31T15:41:35.403Z,7.00
2023-01-31T15:44:23.587Z,7.00
2023-01-31T15:46:53.199Z,7.00
2023-01-31T15:49:38.445Z,7.10
2023-01-31T15:52:09.048Z,7.10
2023-01-31T15:54:36.207Z,7.30
2023-01-31T15:57:04.232Z,7.20
2023-01-31T15:59:33.183Z,7.20
2023-01-31T16:02:05.895Z,7.20
2023-01-31T16:04:32.926Z,7.20
2023-01-31T16:06:59.870Z,7.20
2023-01-31T16:09:32.811Z,7.20
2023-01-31T16:12:01.864Z,7.40
2023-01-31T16:14:29.919Z,7.30
2023-01-31T16:16:58.861Z,7.40
2023-01-31T16:19:29.262Z,7.40
2023-01-31T16:21:58.410Z,7.40
2023-01-31T16:24:34.165Z,7.40
2023-01-31T16:27:15.848Z,7.40
2023-01-31T16:29:56.949Z,7.40
2023-01-31T16:32:29.507Z,7.40
2023-01-31T16:35:02.984Z,7.60
2023-01-31T16:37:34.868Z,7.40
2023-01-31T16:40:34.724Z,7.40
2023-01-31T16:43:24.223Z,7.50
2023-01-31T16:46:20.614Z,7.50
2023-01-31T16:49:05.897Z,7.40
2023-01-31T16:51:43.988Z,7.40
2023-01-31T16:54:17.226Z,7.50
2023-01-31T16:56:46.059Z,7.40
2023-01-31T16:59:31.877Z,7.30
2023-01-31T17:02:03.925Z,7.30
2023-01-31T17:04:31.180Z,7.50
2023-01-31T17:07:07.859Z,7.30
2023-01-31T17:09:35.534Z,7.40
2023-01-31T17:12:02.464Z,7.30
2023-01-31T17:14:30.016Z,7.30
2023-01-31T17:16:57.045Z,7.30
2023-01-31T17:19:24.446Z,7.20
2023-01-31T17:21:51.745Z,7.30
2023-01-31T17:24:22.495Z,7.20
2023-01-31T17:26:51.053Z,7.10
2023-01-31T17:29:19.667Z,7.10
2023-01-31T17:31:46.770Z,7.20
2023-01-31T17:34:15.234Z,7.00
2023-01-31T17:36:53.787Z,7.00
2023-01-31T17:39:20.637Z,6.90
2023-01-31T17:41:47.599Z,6.80
2023-01-31T17:44:15.312Z,6.80
2023-01-31T17:46:43.209Z,6.70
2023-01-31T17:49:10.358Z,6.70
2023-01-31T17:51:37.400Z,6.70
2023-01-31T17:54:04.389Z,6.80
2023-01-31T17:56:48.857Z,6.80
2023-01-31T17:59:26.575Z,6.80
2023-01-31T18:01:54.663Z,6.80
2023-01-31T18:04:21.664Z,6.80
2023-01-31T18:06:48.510Z,6.70
2023-01-31T18:09:16.985Z,6.70
2023-01-31T18:11:44.497Z,6.70
2023-01-31T18:14:12.236Z,6.70
2023-01-31T18:16:39.523Z,6.70
2023-01-31T18:19:06.434Z,6.60
2023-01-31T18:21:34.290Z,6.60
2023-01-31T18:24:01.736Z,6.60
2023-01-31T18:26:31.866Z,6.60
2023-01-31T18:28:59.354Z,6.70
2023-01-31T18:31:26.508Z,6.70
2023-01-31T18:33:53.677Z,6.80
2023-01-31T18:36:21.749Z,6.90
2023-01-31T18:38:49.934Z,6.90
2023-01-31T18:41:19.412Z,7.00
2023-01-31T18:43:48.005Z,7.00
2023-01-31T18:46:17.104Z,7.00
2023-01-31T18:48:44.676Z,7.00
2023-01-31T18:51:13.571Z,7.10
2023-01-31T18:53:45.802Z,7.00
2023-01-31T18:56:18.582Z,7.00
2023-01-31T18:58:46.858Z,7.10
2023-01-31T19:01:15.136Z,7.10
2023-01-31T19:03:43.067Z,7.00
2023-01-31T19:06:09.978Z,7.00
2023-01-31T19:08:37.137Z,7.20
2023-01-31T19:11:13.298Z,7.10
2023-01-31T19:13:41.615Z,7.10
2023-01-31T19:16:11.237Z,7.10
2023-01-31T19:18:39.124Z,7.20
2023-01-31T19:21:28.591Z,7.20
2023-01-31T19:23:59.733Z,7.20
2023-01-31T19:26:27.761Z,7.10
2023-01-31T19:28:55.286Z,7.10
2023-01-31T19:31:24.597Z,7.10
2023-01-31T19:33:59.150Z,7.10
2023-01-31T19:36:29.460Z,7.20
2023-01-31T19:38:58.020Z,7.10
2023-01-31T19:41:26.261Z,7.10
2023-01-31T19:43:54.989Z,7.00
2023-01-31T19:46:23.412Z,7.00
2023-01-31T19:48:50.424Z,7.00
2023-01-31T19:51:19.062Z,7.00
2023-01-31T19:53:47.168Z,6.80
2023-01-31T19:56:14.497Z,6.80
2023-01-31T19:58:41.649Z,6.80
2023-01-31T20:01:12.099Z,6.80
2023-01-31T20:03:39.085Z,6.80
2023-01-31T20:06:08.858Z,6.80
2023-01-31T20:08:36.643Z,6.80
2023-01-31T20:11:04.505Z,6.80
2023-01-31T20:13:31.525Z,6.80
2023-01-31T20:16:07.425Z,6.90
2023-01-31T20:18:35.826Z,6.90
2023-01-31T20:21:03.574Z,6.90
2023-01-31T20:23:30.750Z,6.80
2023-01-31T20:25:58.049Z,6.80
2023-01-31T20:28:25.729Z,6.90
2023-01-31T20:30:52.763Z,6.80
2023-01-31T20:33:19.950Z,6.80
2023-01-31T20:35:47.083Z,6.80
2023-01-31T20:38:17.140Z,6.80
2023-01-31T20:40:52.841Z,6.90
2023-01-31T20:43:21.791Z,6.90
2023-01-31T20:45:49.355Z,6.80
2023-01-31T20:48:16.993Z,6.80
2023-01-31T20:50:44.415Z,6.80
2023-01-31T20:53:18.672Z,6.80
2023-01-31T20:56:07.128Z,6.70
2023-01-31T20:58:36.556Z,6.70
2023-01-31T21:01:06.143Z,6.60
2023-01-31T21:03:34.631Z,6.60
2023-01-31T21:06:02.698Z,6.60
2023-01-31T21:08:31.790Z,6.50
2023-01-31T21:10:59.220Z,6.40
2023-01-31T21:13:31.488Z,6.40
2023-01-31T21:16:01.705Z,6.40
2023-01-31T21:18:31.025Z,6.40
2023-01-31T21:20:58.201Z,6.30
2023-01-31T21:23:25.431Z,6.30
2023-01-31T21:25:52.341Z,6.30
2023-01-31T21:28:19.321Z,6.20
2023-01-31T21:30:56.299Z,6.20
2023-01-31T21:33:23.328Z,6.10
2023-01-31T21:35:50.127Z,6.10
2023-01-31T21:38:16.974Z,6.10
2023-01-31T21:40:43.766Z,6.10
2023-01-31T21:43:13.148Z,6.10
2023-01-31T21:45:40.326Z,6.10
2023-01-31T21:48:27.645Z,6.10
2023-01-31T21:50:55.137Z,6.10
2023-01-31T21:53:27.492Z,6.10
2023-01-31T21:56:03.430Z,6.10
2023-01-31T21:58:30.646Z,6.00
2023-01-31T22:01:25.546Z,6.00
2023-01-31T22:03:53.607Z,6.00
2023-01-31T22:06:26.928Z,5.90
2023-01-31T22:08:58.498Z,5.90
2023-01-31T22:11:26.359Z,5.90
2023-01-31T22:13:55.994Z,5.90
2023-01-31T22:16:23.261Z,5.90
2023-01-31T22:18:51.076Z,5.90
2023-01-31T22:21:20.138Z,5.90
2023-01-31T22:23:49.486Z,5.80
2023-01-31T22:26:19.724Z,5.90
2023-01-31T22:28:46.581Z,5.90
2023-01-31T22:31:13.669Z,5.90
2023-01-31T22:33:42.074Z,5.90
2023-01-31T22:36:11.256Z,5.90
2023-01-31T22:38:38.461Z,5.80
2023-01-31T22:41:07.900Z,5.80
2023-01-31T22:43:43.042Z,5.80
2023-01-31T22:46:22.085Z,5.80
2023-01-31T22:48:49.523Z,5.80
2023-01-31T22:51:19.473Z,5.80
2023-01-31T22:53:47.133Z,5.70
2023-01-31T22:56:20.903Z,5.80
2023-01-31T22:58:48.755Z,5.80
2023-01-31T23:01:23.595Z,5.80
2023-01-31T23:03:50.783Z,5.80
2023-01-31T23:06:18.105Z,5.90
2023-01-31T23:08:45.427Z,6.10
2023-01-31T23:11:15.138Z,6.10
2023-01-31T23:13:42.763Z,6.00
2023-01-31T23:16:15.893Z,6.00
2023-01-31T23:18:42.761Z,6.00
2023-01-31T23:21:12.480Z,6.00
2023-01-31T23:23:39.500Z,6.10
2023-01-31T23:26:06.563Z,6.00
2023-01-31T23:28:33.476Z,6.00
2023-01-31T23:31:00.476Z,6.00
2023-01-31T23:33:27.369Z,6.00
2023-01-31T23:35:54.356Z,5.90
2023-01-31T23:38:21.337Z,5.90
2023-01-31T23:40:52.869Z,5.90
2023-01-31T23:43:20.529Z,5.90
2023-01-31T23:45:47.625Z,5.90
2023-01-31T23:48:14.912Z,5.90
2023-01-31T23:50:41.838Z,5.90
2023-01-31T23:53:08.727Z,6.00
2023-01-31T23:55:35.591Z,6.00
2023-01-31T23:58:02.458Z,6.10
